sensor_id;sensor_type;location;lat;lon;timestamp;pressure;altitude;pressure_sealevel;temperature;humidity
70046;BME280;57385;41.832;23.494;2022-12-31T00:01:02;92044.00;;;0.59;92.77
70046;BME280;57385;41.832;23.494;2022-12-31T00:02:24;92050.94;;;0.57;92.62
70046;BME280;57385;41.832;23.494;2022-12-31T00:03:46;92045.09;;;0.57;92.96
70046;BME280;57385;41.832;23.494;2022-12-31T00:05:08;92041.63;;;0.58;93.43
70046;BME280;57385;41.832;23.494;2022-12-31T00:06:35;92043.06;;;0.61;92.43
70046;BME280;57385;41.832;23.494;2022-12-31T00:07:57;92043.72;;;0.63;92.82
70046;BME280;57385;41.832;23.494;2022-12-31T00:09:19;92045.97;;;0.66;92.76
70046;BME280;57385;41.832;23.494;2022-12-31T00:10:41;92055.13;;;0.67;92.60
70046;BME280;57385;41.832;23.494;2022-12-31T00:12:03;92049.13;;;0.68;92.29
70046;BME280;57385;41.832;23.494;2022-12-31T00:13:25;92049.03;;;0.69;93.31
70046;BME280;57385;41.832;23.494;2022-12-31T00:14:47;92050.47;;;0.72;92.27
70046;BME280;57385;41.832;23.494;2022-12-31T00:16:11;92048.59;;;0.74;92.43
70046;BME280;57385;41.832;23.494;2022-12-31T00:17:33;92047.94;;;0.72;92.82
70046;BME280;57385;41.832;23.494;2022-12-31T00:18:57;92047.81;;;0.73;92.33
70046;BME280;57385;41.832;23.494;2022-12-31T00:20:22;92036.91;;;0.73;92.00
70046;BME280;57385;41.832;23.494;2022-12-31T00:21:44;92033.47;;;0.74;92.72
70046;BME280;57385;41.832;23.494;2022-12-31T00:23:06;92030.00;;;0.75;92.73
70046;BME280;57385;41.832;23.494;2022-12-31T00:24:29;92035.84;;;0.75;91.87
70046;BME280;57385;41.832;23.494;2022-12-31T00:25:51;92040.88;;;0.75;92.02
70046;BME280;57385;41.832;23.494;2022-12-31T00:27:13;92047.53;;;0.76;91.79
70046;BME280;57385;41.832;23.494;2022-12-31T00:28:36;92044.06;;;0.77;91.46
70046;BME280;57385;41.832;23.494;2022-12-31T00:29:58;92042.31;;;0.78;92.06
70046;BME280;57385;41.832;23.494;2022-12-31T00:31:30;92039.94;;;0.76;92.05
70046;BME280;57385;41.832;23.494;2022-12-31T00:32:52;92042.31;;;0.78;92.37
70046;BME280;57385;41.832;23.494;2022-12-31T00:34:14;92040.59;;;0.78;91.55
70046;BME280;57385;41.832;23.494;2022-12-31T00:35:35;92035.41;;;0.80;91.50
70046;BME280;57385;41.832;23.494;2022-12-31T00:36:57;92037.00;;;0.81;91.42
70046;BME280;57385;41.832;23.494;2022-12-31T00:38:22;92048.69;;;0.82;91.88
70046;BME280;57385;41.832;23.494;2022-12-31T00:39:44;92052.16;;;0.81;91.73
70046;BME280;57385;41.832;23.494;2022-12-31T00:41:07;92052.94;;;0.81;91.77
70046;BME280;57385;41.832;23.494;2022-12-31T00:42:29;92058.66;;;0.83;91.76
70046;BME280;57385;41.832;23.494;2022-12-31T00:43:51;92059.47;;;0.84;92.26
70046;BME280;57385;41.832;23.494;2022-12-31T00:45:13;92058.78;;;0.82;91.31
70046;BME280;57385;41.832;23.494;2022-12-31T00:46:35;92069.69;;;0.82;92.23
70046;BME280;57385;41.832;23.494;2022-12-31T00:47:55;92065.06;;;0.78;91.82
70046;BME280;57385;41.832;23.494;2022-12-31T00:49:17;92062.66;;;0.76;91.36
70046;BME280;57385;41.832;23.494;2022-12-31T00:50:39;92064.41;;;0.76;91.35
70046;BME280;57385;41.832;23.494;2022-12-31T00:52:01;92062.81;;;0.75;91.30
70046;BME280;57385;41.832;23.494;2022-12-31T00:53:23;92070.91;;;0.78;92.47
70046;BME280;57385;41.832;23.494;2022-12-31T00:54:45;92064.91;;;0.79;91.72
70046;BME280;57385;41.832;23.494;2022-12-31T00:56:13;92067.56;;;0.78;91.72
70046;BME280;57385;41.832;23.494;2022-12-31T00:57:35;92074.63;;;0.74;92.12
70046;BME280;57385;41.832;23.494;2022-12-31T00:58:57;92068.28;;;0.70;91.46
70046;BME280;57385;41.832;23.494;2022-12-31T01:00:19;92070.13;;;0.68;91.42
70046;BME280;57385;41.832;23.494;2022-12-31T01:01:42;92069.34;;;0.68;91.35
70046;BME280;57385;41.832;23.494;2022-12-31T01:03:04;92075.84;;;0.70;91.75
70046;BME280;57385;41.832;23.494;2022-12-31T01:04:26;92078.38;;;0.70;92.39
70046;BME280;57385;41.832;23.494;2022-12-31T01:05:48;92071.59;;;0.71;92.31
70046;BME280;57385;41.832;23.494;2022-12-31T01:07:11;92073.19;;;0.72;91.82
70046;BME280;57385;41.832;23.494;2022-12-31T01:08:33;92071.59;;;0.71;91.61
70046;BME280;57385;41.832;23.494;2022-12-31T01:09:55;92076.91;;;0.68;92.06
70046;BME280;57385;41.832;23.494;2022-12-31T01:11:17;92081.06;;;0.69;90.94
70046;BME280;57385;41.832;23.494;2022-12-31T01:12:39;92082.75;;;0.68;91.06
70046;BME280;57385;41.832;23.494;2022-12-31T01:14:04;92075.09;;;0.60;91.07
70046;BME280;57385;41.832;23.494;2022-12-31T01:15:26;92074.97;;;0.52;91.64
70046;BME280;57385;41.832;23.494;2022-12-31T01:16:53;92068.59;;;0.57;91.53
70046;BME280;57385;41.832;23.494;2022-12-31T01:18:15;92075.38;;;0.57;90.99
70046;BME280;57385;41.832;23.494;2022-12-31T01:19:37;92080.13;;;0.60;91.83
70046;BME280;57385;41.832;23.494;2022-12-31T01:21:02;92080.13;;;0.60;91.22
70046;BME280;57385;41.832;23.494;2022-12-31T01:22:24;92077.47;;;0.62;91.71
70046;BME280;57385;41.832;23.494;2022-12-31T01:23:47;92080.00;;;0.62;91.22
70046;BME280;57385;41.832;23.494;2022-12-31T01:25:09;92070.84;;;0.61;91.16
70046;BME280;57385;41.832;23.494;2022-12-31T01:26:31;92065.78;;;0.61;91.22
70046;BME280;57385;41.832;23.494;2022-12-31T01:27:53;92059.94;;;0.60;91.05
70046;BME280;57385;41.832;23.494;2022-12-31T01:29:15;92059.16;;;0.59;90.96
70046;BME280;57385;41.832;23.494;2022-12-31T01:30:38;92065.00;;;0.60;91.99
70046;BME280;57385;41.832;23.494;2022-12-31T01:32:03;92069.91;;;0.62;92.07
70046;BME280;57385;41.832;23.494;2022-12-31T01:33:26;92065.00;;;0.60;92.00
70046;BME280;57385;41.832;23.494;2022-12-31T01:34:47;92064.06;;;0.61;91.75
70046;BME280;57385;41.832;23.494;2022-12-31T01:36:12;92059.16;;;0.59;91.50
70046;BME280;57385;41.832;23.494;2022-12-31T01:37:34;92060.88;;;0.59;91.44
70046;BME280;57385;41.832;23.494;2022-12-31T01:38:58;92056.13;;;0.56;91.26
70046;BME280;57385;41.832;23.494;2022-12-31T01:40:20;92059.44;;;0.56;91.07
70046;BME280;57385;41.832;23.494;2022-12-31T01:41:45;92059.56;;;0.55;91.47
70046;BME280;57385;41.832;23.494;2022-12-31T01:43:18;92062.09;;;0.55;92.10
70046;BME280;57385;41.832;23.494;2022-12-31T01:44:44;92063.28;;;0.51;91.79
70046;BME280;57385;41.832;23.494;2022-12-31T01:46:09;92063.28;;;0.51;90.91
70046;BME280;57385;41.832;23.494;2022-12-31T01:47:47;92065.81;;;0.51;91.26
70046;BME280;57385;41.832;23.494;2022-12-31T01:50:38;92056.50;;;0.51;91.98
70046;BME280;57385;41.832;23.494;2022-12-31T01:53:48;92063.16;;;0.52;91.15
70046;BME280;57385;41.832;23.494;2022-12-31T01:55:27;92061.56;;;0.51;91.58
70046;BME280;57385;41.832;23.494;2022-12-31T01:56:52;92063.16;;;0.52;91.02
70046;BME280;57385;41.832;23.494;2022-12-31T01:58:29;92060.63;;;0.52;91.16
70046;BME280;57385;41.832;23.494;2022-12-31T01:59:53;92066.59;;;0.51;91.04
70046;BME280;57385;41.832;23.494;2022-12-31T02:01:25;92072.44;;;0.52;91.31
70046;BME280;57385;41.832;23.494;2022-12-31T02:02:48;92065.94;;;0.49;91.21
70046;BME280;57385;41.832;23.494;2022-12-31T02:04:11;92065.28;;;0.47;91.08
70046;BME280;57385;41.832;23.494;2022-12-31T02:07:14;92070.63;;;0.44;91.34
70046;BME280;57385;41.832;23.494;2022-12-31T02:08:36;92072.50;;;0.42;91.42
70046;BME280;57385;41.832;23.494;2022-12-31T02:10:02;92072.59;;;0.41;90.93
70046;BME280;57385;41.832;23.494;2022-12-31T02:11:30;92076.84;;;0.40;91.28
70046;BME280;57385;41.832;23.494;2022-12-31T02:12:53;92077.28;;;0.36;90.69
70046;BME280;57385;41.832;23.494;2022-12-31T02:14:27;92080.50;;;0.28;90.78
70046;BME280;57385;41.832;23.494;2022-12-31T02:16:11;92081.03;;;0.12;90.88
70046;BME280;57385;41.832;23.494;2022-12-31T02:17:58;92076.91;;;0.11;91.19
70046;BME280;57385;41.832;23.494;2022-12-31T02:20:59;92080.66;;;-0.03;91.84
70046;BME280;57385;41.832;23.494;2022-12-31T02:29:02;92073.59;;;0.11;92.43
70046;BME280;57385;41.832;23.494;2022-12-31T02:30:32;92065.66;;;0.06;92.57
70046;BME280;57385;41.832;23.494;2022-12-31T02:32:19;92069.13;;;0.05;92.79
70046;BME280;57385;41.832;23.494;2022-12-31T02:35:12;92072.28;;;0.07;93.27
70046;BME280;57385;41.832;23.494;2022-12-31T02:36:39;92068.56;;;0.11;92.57
70046;BME280;57385;41.832;23.494;2022-12-31T02:38:25;92071.88;;;0.11;93.23
70046;BME280;57385;41.832;23.494;2022-12-31T02:39:51;92069.91;;;0.15;93.02
70046;BME280;57385;41.832;23.494;2022-12-31T02:41:14;92072.28;;;0.16;92.45
70046;BME280;57385;41.832;23.494;2022-12-31T02:42:56;92072.28;;;0.16;92.89
70046;BME280;57385;41.832;23.494;2022-12-31T02:44:31;92080.50;;;0.18;92.48
70046;BME280;57385;41.832;23.494;2022-12-31T02:46:23;92083.03;;;0.18;92.50
70046;BME280;57385;41.832;23.494;2022-12-31T02:48:16;92084.47;;;0.21;93.10
70046;BME280;57385;41.832;23.494;2022-12-31T02:53:21;92074.66;;;0.18;92.00
70046;BME280;57385;41.832;23.494;2022-12-31T03:01:34;92082.63;;;0.23;91.49
70046;BME280;57385;41.832;23.494;2022-12-31T03:03:18;92080.09;;;0.23;91.97
70046;BME280;57385;41.832;23.494;2022-12-31T03:04:43;92085.41;;;0.20;91.62
70046;BME280;57385;41.832;23.494;2022-12-31T03:06:07;92096.16;;;0.22;91.50
70046;BME280;57385;41.832;23.494;2022-12-31T03:07:31;92085.41;;;0.20;90.96
70046;BME280;57385;41.832;23.494;2022-12-31T03:08:53;92087.94;;;0.20;91.53
70046;BME280;57385;41.832;23.494;2022-12-31T03:10:34;92089.53;;;0.21;91.79
70046;BME280;57385;41.832;23.494;2022-12-31T03:11:56;92091.91;;;0.22;91.55
70046;BME280;57385;41.832;23.494;2022-12-31T03:13:36;92092.69;;;0.23;91.73
70046;BME280;57385;41.832;23.494;2022-12-31T03:14:58;92094.28;;;0.24;92.11
70046;BME280;57385;41.832;23.494;2022-12-31T03:16:20;92100.53;;;0.20;91.72
70046;BME280;57385;41.832;23.494;2022-12-31T03:17:42;92096.28;;;0.20;91.72
70046;BME280;57385;41.832;23.494;2022-12-31T03:19:04;92095.78;;;0.17;91.35
70046;BME280;57385;41.832;23.494;2022-12-31T03:20:50;92092.03;;;0.21;91.25
70046;BME280;57385;41.832;23.494;2022-12-31T03:22:31;92097.75;;;0.23;92.02
70046;BME280;57385;41.832;23.494;2022-12-31T03:23:53;92095.09;;;0.24;92.25
70046;BME280;57385;41.832;23.494;2022-12-31T03:25:33;92094.28;;;0.24;91.91
70046;BME280;57385;41.832;23.494;2022-12-31T03:26:56;92098.53;;;0.23;91.25
70046;BME280;57385;41.832;23.494;2022-12-31T03:28:20;92096.69;;;0.25;91.41
70046;BME280;57385;41.832;23.494;2022-12-31T03:29:42;92099.75;;;0.29;91.62
70046;BME280;57385;41.832;23.494;2022-12-31T03:31:05;92099.59;;;0.31;92.09
70046;BME280;57385;41.832;23.494;2022-12-31T03:32:26;92102.91;;;0.31;92.06
70046;BME280;57385;41.832;23.494;2022-12-31T03:33:48;92097.75;;;0.33;91.86
70046;BME280;57385;41.832;23.494;2022-12-31T03:35:12;92103.72;;;0.32;91.79
70046;BME280;57385;41.832;23.494;2022-12-31T03:36:34;92103.84;;;0.30;91.39
70046;BME280;57385;41.832;23.494;2022-12-31T03:37:56;92099.06;;;0.27;91.58
70046;BME280;57385;41.832;23.494;2022-12-31T03:39:18;92108.91;;;0.30;90.92
70046;BME280;57385;41.832;23.494;2022-12-31T03:40:43;92106.25;;;0.22;90.88
70046;BME280;57385;41.832;23.494;2022-12-31T03:42:05;92107.31;;;0.19;90.62
70046;BME280;57385;41.832;23.494;2022-12-31T03:43:27;92107.72;;;0.15;90.57
70046;BME280;57385;41.832;23.494;2022-12-31T03:44:49;92102.53;;;0.16;91.39
70046;BME280;57385;41.832;23.494;2022-12-31T03:46:10;92099.88;;;0.18;91.36
70046;BME280;57385;41.832;23.494;2022-12-31T03:47:33;92102.13;;;0.21;91.75
70046;BME280;57385;41.832;23.494;2022-12-31T03:48:55;92099.63;;;0.21;91.12
70046;BME280;57385;41.832;23.494;2022-12-31T03:50:17;92093.78;;;0.20;91.76
70046;BME280;57385;41.832;23.494;2022-12-31T03:51:39;92088.22;;;0.17;91.37
70046;BME280;57385;41.832;23.494;2022-12-31T03:53:01;92089.81;;;0.18;91.87
70046;BME280;57385;41.832;23.494;2022-12-31T03:54:23;92093.78;;;0.20;91.33
70046;BME280;57385;41.832;23.494;2022-12-31T03:55:52;92093.63;;;0.22;91.17
70046;BME280;57385;41.832;23.494;2022-12-31T03:57:14;92099.34;;;0.24;91.49
70046;BME280;57385;41.832;23.494;2022-12-31T03:58:36;92095.88;;;0.25;91.87
70046;BME280;57385;41.832;23.494;2022-12-31T03:59:58;92102.50;;;0.26;91.63
70046;BME280;57385;41.832;23.494;2022-12-31T04:01:20;92097.47;;;0.26;91.46
70046;BME280;57385;41.832;23.494;2022-12-31T04:02:46;92099.88;;;0.27;91.40
70046;BME280;57385;41.832;23.494;2022-12-31T04:04:08;92098.00;;;0.29;91.99
70046;BME280;57385;41.832;23.494;2022-12-31T04:05:30;92102.13;;;0.31;91.34
70046;BME280;57385;41.832;23.494;2022-12-31T04:06:53;92107.03;;;0.32;91.07
70046;BME280;57385;41.832;23.494;2022-12-31T04:08:14;92104.22;;;0.35;91.13
70046;BME280;57385;41.832;23.494;2022-12-31T04:09:36;92105.97;;;0.35;91.47
70046;BME280;57385;41.832;23.494;2022-12-31T04:10:58;92110.22;;;0.34;91.43
70046;BME280;57385;41.832;23.494;2022-12-31T04:12:20;92106.75;;;0.35;90.86
70046;BME280;57385;41.832;23.494;2022-12-31T04:13:42;92108.34;;;0.36;91.26
70046;BME280;57385;41.832;23.494;2022-12-31T04:15:05;92107.56;;;0.36;90.90
70046;BME280;57385;41.832;23.494;2022-12-31T04:16:28;92103.56;;;0.33;90.91
70046;BME280;57385;41.832;23.494;2022-12-31T04:17:50;92108.75;;;0.32;91.40
70046;BME280;57385;41.832;23.494;2022-12-31T04:19:13;92109.56;;;0.32;91.36
70046;BME280;57385;41.832;23.494;2022-12-31T04:20:35;92113.66;;;0.33;91.96
70046;BME280;57385;41.832;23.494;2022-12-31T04:21:57;92115.03;;;0.27;91.44
70046;BME280;57385;41.832;23.494;2022-12-31T04:23:19;92112.38;;;0.19;90.57
70046;BME280;57385;41.832;23.494;2022-12-31T04:24:41;92116.34;;;0.22;91.09
70046;BME280;57385;41.832;23.494;2022-12-31T04:26:04;92109.41;;;0.24;91.31
70046;BME280;57385;41.832;23.494;2022-12-31T04:27:26;92116.19;;;0.23;90.79
70046;BME280;57385;41.832;23.494;2022-12-31T04:28:48;92114.47;;;0.24;91.02
70046;BME280;57385;41.832;23.494;2022-12-31T04:30:11;92111.16;;;0.23;90.89
70046;BME280;57385;41.832;23.494;2022-12-31T04:31:33;92113.69;;;0.23;91.61
70046;BME280;57385;41.832;23.494;2022-12-31T04:32:55;92107.84;;;0.23;90.74
70046;BME280;57385;41.832;23.494;2022-12-31T04:34:17;92116.34;;;0.22;91.22
70046;BME280;57385;41.832;23.494;2022-12-31T04:35:39;92119.78;;;0.21;90.92
70046;BME280;57385;41.832;23.494;2022-12-31T04:37:02;92121.53;;;0.20;90.84
70046;BME280;57385;41.832;23.494;2022-12-31T04:38:24;92118.19;;;0.20;90.96
70046;BME280;57385;41.832;23.494;2022-12-31T04:39:45;92118.19;;;0.20;91.25
70046;BME280;57385;41.832;23.494;2022-12-31T04:41:07;92119.13;;;0.19;91.04
70046;BME280;57385;41.832;23.494;2022-12-31T04:42:38;92116.63;;;0.19;91.49
70046;BME280;57385;41.832;23.494;2022-12-31T04:44:00;92113.56;;;0.15;91.26
70046;BME280;57385;41.832;23.494;2022-12-31T04:45:22;92116.09;;;0.15;91.02
70046;BME280;57385;41.832;23.494;2022-12-31T04:46:44;92115.94;;;0.17;90.98
70046;BME280;57385;41.832;23.494;2022-12-31T04:48:06;92110.25;;;0.15;90.76
70046;BME280;57385;41.832;23.494;2022-12-31T04:49:28;92116.22;;;0.14;90.76
70046;BME280;57385;41.832;23.494;2022-12-31T04:50:50;92111.19;;;0.14;90.75
70046;BME280;57385;41.832;23.494;2022-12-31T04:52:11;92102.00;;;0.13;91.07
70046;BME280;57385;41.832;23.494;2022-12-31T04:53:33;92101.09;;;0.14;91.36
70046;BME280;57385;41.832;23.494;2022-12-31T04:54:55;92097.75;;;0.13;90.88
70046;BME280;57385;41.832;23.494;2022-12-31T04:56:19;92098.69;;;0.12;91.01
70046;BME280;57385;41.832;23.494;2022-12-31T04:57:41;92091.91;;;0.13;90.92
70046;BME280;57385;41.832;23.494;2022-12-31T04:59:03;92105.44;;;0.12;91.05
70046;BME280;57385;41.832;23.494;2022-12-31T05:00:25;92107.47;;;0.08;91.02
70046;BME280;57385;41.832;23.494;2022-12-31T05:01:48;92112.38;;;0.10;91.08
70046;BME280;57385;41.832;23.494;2022-12-31T05:03:10;92116.09;;;0.06;90.98
70046;BME280;57385;41.832;23.494;2022-12-31T05:04:32;92121.00;;;-0.22;90.13
70046;BME280;57385;41.832;23.494;2022-12-31T05:06:06;92125.22;;;-0.32;90.12
70046;BME280;57385;41.832;23.494;2022-12-31T05:07:28;92131.28;;;-0.64;89.69
70046;BME280;57385;41.832;23.494;2022-12-31T05:08:50;92131.78;;;-0.79;90.21
70046;BME280;57385;41.832;23.494;2022-12-31T05:10:12;92138.81;;;-0.73;90.50
70046;BME280;57385;41.832;23.494;2022-12-31T05:11:34;92126.31;;;-0.94;90.11
70046;BME280;57385;41.832;23.494;2022-12-31T05:12:56;92135.28;;;-1.01;90.60
70046;BME280;57385;41.832;23.494;2022-12-31T05:14:18;92135.00;;;-1.08;91.06
70046;BME280;57385;41.832;23.494;2022-12-31T05:15:41;92134.31;;;-1.10;92.02
70046;BME280;57385;41.832;23.494;2022-12-31T05:17:02;92137.88;;;-1.12;91.80
70046;BME280;57385;41.832;23.494;2022-12-31T05:18:24;92137.66;;;-1.09;92.52
70046;BME280;57385;41.832;23.494;2022-12-31T05:19:46;92137.13;;;-1.03;93.29
70046;BME280;57385;41.832;23.494;2022-12-31T05:21:10;92140.84;;;-0.98;93.63
70046;BME280;57385;41.832;23.494;2022-12-31T05:22:36;92136.38;;;-0.94;93.73
70046;BME280;57385;41.832;23.494;2022-12-31T05:23:58;92138.50;;;-0.90;93.47
70046;BME280;57385;41.832;23.494;2022-12-31T05:25:20;92135.59;;;-0.85;94.10
70046;BME280;57385;41.832;23.494;2022-12-31T05:26:42;92142.09;;;-0.82;93.96
70046;BME280;57385;41.832;23.494;2022-12-31T05:28:04;92143.47;;;-0.78;94.33
70046;BME280;57385;41.832;23.494;2022-12-31T05:29:25;92144.78;;;-0.74;94.16
70046;BME280;57385;41.832;23.494;2022-12-31T05:30:49;92152.75;;;-0.69;93.92
70046;BME280;57385;41.832;23.494;2022-12-31T05:32:11;92151.56;;;-0.65;93.41
70046;BME280;57385;41.832;23.494;2022-12-31T05:33:33;92157.16;;;-0.62;93.24
70046;BME280;57385;41.832;23.494;2022-12-31T05:34:56;92152.25;;;-0.63;93.69
70046;BME280;57385;41.832;23.494;2022-12-31T05:36:18;92154.75;;;-0.63;92.99
70046;BME280;57385;41.832;23.494;2022-12-31T05:37:40;92149.47;;;-0.60;93.10
70046;BME280;57385;41.832;23.494;2022-12-31T05:39:02;92152.50;;;-0.56;93.55
70046;BME280;57385;41.832;23.494;2022-12-31T05:40:24;92156.50;;;-0.54;93.49
70046;BME280;57385;41.832;23.494;2022-12-31T05:41:46;92148.69;;;-0.51;93.32
70046;BME280;57385;41.832;23.494;2022-12-31T05:43:08;92150.00;;;-0.47;92.33
70046;BME280;57385;41.832;23.494;2022-12-31T05:44:30;92153.59;;;-0.49;92.73
70046;BME280;57385;41.832;23.494;2022-12-31T05:45:52;92160.63;;;-0.53;92.01
70046;BME280;57385;41.832;23.494;2022-12-31T05:47:15;92163.28;;;-0.54;91.87
70046;BME280;57385;41.832;23.494;2022-12-31T05:48:37;92166.47;;;-0.52;92.38
70046;BME280;57385;41.832;23.494;2022-12-31T05:49:59;92171.22;;;-0.49;92.03
70046;BME280;57385;41.832;23.494;2022-12-31T05:51:21;92172.25;;;-0.62;91.29
70046;BME280;57385;41.832;23.494;2022-12-31T05:52:44;92172.78;;;-0.68;91.13
70046;BME280;57385;41.832;23.494;2022-12-31T05:54:08;92171.59;;;-0.64;91.39
70046;BME280;57385;41.832;23.494;2022-12-31T05:55:30;92176.50;;;-0.62;90.75
70046;BME280;57385;41.832;23.494;2022-12-31T05:56:52;92168.81;;;-0.61;91.31
70046;BME280;57385;41.832;23.494;2022-12-31T05:58:15;92168.69;;;-0.59;91.48
70046;BME280;57385;41.832;23.494;2022-12-31T05:59:37;92185.25;;;-0.56;91.82
70046;BME280;57385;41.832;23.494;2022-12-31T06:00:59;92180.09;;;-0.55;91.41
70046;BME280;57385;41.832;23.494;2022-12-31T06:02:21;92177.47;;;-0.53;91.69
70046;BME280;57385;41.832;23.494;2022-12-31T06:03:43;92174.69;;;-0.50;91.26
70046;BME280;57385;41.832;23.494;2022-12-31T06:05:05;92181.16;;;-0.57;90.79
70046;BME280;57385;41.832;23.494;2022-12-31T06:06:27;92182.72;;;-0.56;91.26
70046;BME280;57385;41.832;23.494;2022-12-31T06:07:49;92179.19;;;-0.54;91.19
70046;BME280;57385;41.832;23.494;2022-12-31T06:09:11;92174.00;;;-0.52;91.19
70046;BME280;57385;41.832;23.494;2022-12-31T06:10:33;92179.72;;;-0.50;91.34
70046;BME280;57385;41.832;23.494;2022-12-31T06:11:55;92179.06;;;-0.52;91.31
70046;BME280;57385;41.832;23.494;2022-12-31T06:13:16;92178.13;;;-0.51;92.10
70046;BME280;57385;41.832;23.494;2022-12-31T06:14:38;92179.59;;;-0.49;92.16
70046;BME280;57385;41.832;23.494;2022-12-31T06:16:07;92182.50;;;-0.44;92.38
70046;BME280;57385;41.832;23.494;2022-12-31T06:17:29;92185.44;;;-0.39;91.62
70046;BME280;57385;41.832;23.494;2022-12-31T06:18:53;92182.00;;;-0.38;91.76
70046;BME280;57385;41.832;23.494;2022-12-31T06:20:16;92189.97;;;-0.33;91.27
70046;BME280;57385;41.832;23.494;2022-12-31T06:21:38;92180.53;;;-0.31;91.78
70046;BME280;57385;41.832;23.494;2022-12-31T06:23:01;92176.16;;;-0.28;91.17
70046;BME280;57385;41.832;23.494;2022-12-31T06:24:23;92183.50;;;-0.25;91.49
70046;BME280;57385;41.832;23.494;2022-12-31T06:25:44;92182.41;;;-0.23;91.47
70046;BME280;57385;41.832;23.494;2022-12-31T06:27:06;92187.19;;;-0.20;91.51
70046;BME280;57385;41.832;23.494;2022-12-31T06:28:28;92186.94;;;-0.17;90.95
70046;BME280;57385;41.832;23.494;2022-12-31T06:29:50;92190.13;;;-0.15;91.53
70046;BME280;57385;41.832;23.494;2022-12-31T06:31:13;92196.50;;;-0.11;91.21
70046;BME280;57385;41.832;23.494;2022-12-31T06:32:35;92200.47;;;-0.08;90.56
70046;BME280;57385;41.832;23.494;2022-12-31T06:33:57;92197.81;;;-0.07;90.81
70046;BME280;57385;41.832;23.494;2022-12-31T06:35:19;92200.34;;;-0.07;90.49
70046;BME280;57385;41.832;23.494;2022-12-31T06:36:41;92203.41;;;-0.03;90.63
70046;BME280;57385;41.832;23.494;2022-12-31T06:38:02;92191.34;;;0.01;90.41
70046;BME280;57385;41.832;23.494;2022-12-31T06:39:25;92194.66;;;0.01;90.56
70046;BME280;57385;41.832;23.494;2022-12-31T06:40:46;92192.66;;;0.05;90.18
70046;BME280;57385;41.832;23.494;2022-12-31T06:42:08;92198.38;;;0.07;90.99
70046;BME280;57385;41.832;23.494;2022-12-31T06:43:32;92191.19;;;0.12;90.23
70046;BME280;57385;41.832;23.494;2022-12-31T06:44:54;92193.34;;;0.16;90.75
70046;BME280;57385;41.832;23.494;2022-12-31T06:46:17;92196.91;;;0.23;90.30
70046;BME280;57385;41.832;23.494;2022-12-31T06:47:39;92200.66;;;0.29;90.00
70046;BME280;57385;41.832;23.494;2022-12-31T06:49:01;92200.09;;;0.35;89.99
70046;BME280;57385;41.832;23.494;2022-12-31T06:50:23;92198.66;;;0.42;89.55
70046;BME280;57385;41.832;23.494;2022-12-31T06:51:47;92199.56;;;0.51;89.14
70046;BME280;57385;41.832;23.494;2022-12-31T06:53:09;92202.88;;;0.61;88.94
70046;BME280;57385;41.832;23.494;2022-12-31T06:54:31;92202.88;;;0.71;88.71
70046;BME280;57385;41.832;23.494;2022-12-31T06:55:53;92199.50;;;0.80;88.72
70046;BME280;57385;41.832;23.494;2022-12-31T06:57:15;92200.56;;;0.87;88.45
70046;BME280;57385;41.832;23.494;2022-12-31T06:58:37;92198.03;;;0.97;87.88
70046;BME280;57385;41.832;23.494;2022-12-31T07:00:00;92203.69;;;1.08;87.55
70046;BME280;57385;41.832;23.494;2022-12-31T07:01:56;92202.06;;;1.17;86.70
70046;BME280;57385;41.832;23.494;2022-12-31T07:03:38;92198.44;;;1.29;86.17
70046;BME280;57385;41.832;23.494;2022-12-31T07:08:12;92203.38;;;1.58;86.23
70046;BME280;57385;41.832;23.494;2022-12-31T07:09:49;92198.69;;;1.63;85.19
70046;BME280;57385;41.832;23.494;2022-12-31T07:11:27;92207.34;;;1.61;86.12
70046;BME280;57385;41.832;23.494;2022-12-31T07:18:14;92208.25;;;1.42;82.46
70046;BME280;57385;41.832;23.494;2022-12-31T07:21:14;92219.38;;;1.49;82.60
70046;BME280;57385;41.832;23.494;2022-12-31T07:22:37;92217.28;;;1.72;82.48
70046;BME280;57385;41.832;23.494;2022-12-31T07:23:59;92221.06;;;1.86;82.03
70046;BME280;57385;41.832;23.494;2022-12-31T07:25:22;92218.19;;;1.98;81.40
70046;BME280;57385;41.832;23.494;2022-12-31T07:29:03;92227.56;;;2.33;81.13
70046;BME280;57385;41.832;23.494;2022-12-31T07:30:36;92232.47;;;2.53;80.44
70046;BME280;57385;41.832;23.494;2022-12-31T07:33:55;92237.38;;;2.72;79.99
70046;BME280;57385;41.832;23.494;2022-12-31T07:37:48;92237.63;;;2.87;79.01
70046;BME280;57385;41.832;23.494;2022-12-31T07:39:04;92240.94;;;3.05;78.52
70046;BME280;57385;41.832;23.494;2022-12-31T07:42:27;92234.56;;;3.53;76.79
70046;BME280;57385;41.832;23.494;2022-12-31T07:47:22;92232.72;;;4.05;74.85
70046;BME280;57385;41.832;23.494;2022-12-31T07:48:45;92227.47;;;3.99;75.03
70046;BME280;57385;41.832;23.494;2022-12-31T07:50:14;92229.72;;;4.18;74.85
70046;BME280;57385;41.832;23.494;2022-12-31T07:51:36;92221.44;;;4.08;74.76
70046;BME280;57385;41.832;23.494;2022-12-31T07:52:58;92228.84;;;4.43;74.15
70046;BME280;57385;41.832;23.494;2022-12-31T07:54:21;92233.44;;;4.64;73.10
70046;BME280;57385;41.832;23.494;2022-12-31T07:55:43;92229.50;;;4.86;72.13
70046;BME280;57385;41.832;23.494;2022-12-31T07:57:05;92229.34;;;5.12;71.83
70046;BME280;57385;41.832;23.494;2022-12-31T08:00:12;92236.91;;;5.45;71.34
70046;BME280;57385;41.832;23.494;2022-12-31T08:01:42;92237.53;;;5.55;70.43
70046;BME280;57385;41.832;23.494;2022-12-31T08:09:38;92230.44;;;7.20;65.76
70046;BME280;57385;41.832;23.494;2022-12-31T08:12:39;92238.59;;;7.83;62.96
70046;BME280;57385;41.832;23.494;2022-12-31T08:14:02;92232.16;;;7.72;62.46
70046;BME280;57385;41.832;23.494;2022-12-31T08:15:24;92231.91;;;7.82;61.86
70046;BME280;57385;41.832;23.494;2022-12-31T08:16:51;92236.53;;;8.08;62.04
70046;BME280;57385;41.832;23.494;2022-12-31T08:18:13;92236.06;;;8.48;60.88
70046;BME280;57385;41.832;23.494;2022-12-31T08:19:35;92230.97;;;8.70;60.68
70046;BME280;57385;41.832;23.494;2022-12-31T08:21:13;92236.66;;;8.86;59.71
70046;BME280;57385;41.832;23.494;2022-12-31T08:23:27;92236.88;;;9.13;58.48